sensor_id;sensor_type;location;lat;lon;timestamp;P1;durP1;ratioP1;P2;durP2;ratioP2
29816;SDS011;16805;52.956;5.906;2023-10-31T00:01:16;2.72;;;1.20;;
29816;SDS011;16805;52.956;5.906;2023-10-31T00:03:42;6.93;;;1.00;;
29816;SDS011;16805;52.956;5.906;2023-10-31T00:06:09;0.80;;;0.70;;
29816;SDS011;16805;52.956;5.906;2023-10-31T00:08:35;1.58;;;0.80;;
29816;SDS011;16805;52.956;5.906;2023-10-31T00:11:00;2.03;;;0.90;;
29816;SDS011;16805;52.956;5.906;2023-10-31T00:13:26;1.10;;;0.85;;
29816;SDS011;16805;52.956;5.906;2023-10-31T00:15:52;5.40;;;0.57;;
29816;SDS011;16805;52.956;5.906;2023-10-31T00:18:17;1.33;;;0.82;;
29816;SDS011;16805;52.956;5.906;2023-10-31T00:20:43;1.85;;;0.57;;
29816;SDS011;16805;52.956;5.906;2023-10-31T00:23:09;1.17;;;0.40;;
29816;SDS011;16805;52.956;5.906;2023-10-31T00:25:34;1.33;;;0.43;;
29816;SDS011;16805;52.956;5.906;2023-10-31T00:28:00;1.10;;;0.88;;
29816;SDS011;16805;52.956;5.906;2023-10-31T00:30:25;1.48;;;0.60;;
29816;SDS011;16805;52.956;5.906;2023-10-31T00:32:51;1.25;;;0.52;;
29816;SDS011;16805;52.956;5.906;2023-10-31T00:35:19;0.70;;;0.30;;
29816;SDS011;16805;52.956;5.906;2023-10-31T00:37:45;0.60;;;0.38;;
29816;SDS011;16805;52.956;5.906;2023-10-31T00:40:11;2.25;;;0.43;;
29816;SDS011;16805;52.956;5.906;2023-10-31T00:42:37;1.20;;;0.50;;
29816;SDS011;16805;52.956;5.906;2023-10-31T00:45:03;1.00;;;0.40;;
29816;SDS011;16805;52.956;5.906;2023-10-31T00:47:29;2.15;;;0.50;;
29816;SDS011;16805;52.956;5.906;2023-10-31T00:49:54;0.85;;;0.43;;
29816;SDS011;16805;52.956;5.906;2023-10-31T00:52:20;2.10;;;0.30;;
29816;SDS011;16805;52.956;5.906;2023-10-31T00:54:46;2.30;;;0.50;;
29816;SDS011;16805;52.956;5.906;2023-10-31T00:57:11;2.17;;;0.40;;
29816;SDS011;16805;52.956;5.906;2023-10-31T00:59:37;2.05;;;0.50;;
29816;SDS011;16805;52.956;5.906;2023-10-31T01:02:04;2.88;;;0.60;;
29816;SDS011;16805;52.956;5.906;2023-10-31T01:04:30;2.42;;;0.60;;
29816;SDS011;16805;52.956;5.906;2023-10-31T01:06:56;1.52;;;0.55;;
29816;SDS011;16805;52.956;5.906;2023-10-31T01:09:22;2.38;;;0.50;;
29816;SDS011;16805;52.956;5.906;2023-10-31T01:11:47;4.22;;;0.73;;
29816;SDS011;16805;52.956;5.906;2023-10-31T01:14:13;2.75;;;0.70;;
29816;SDS011;16805;52.956;5.906;2023-10-31T01:16:40;1.77;;;0.95;;
29816;SDS011;16805;52.956;5.906;2023-10-31T01:19:06;3.85;;;1.08;;
29816;SDS011;16805;52.956;5.906;2023-10-31T01:21:32;1.90;;;1.25;;
29816;SDS011;16805;52.956;5.906;2023-10-31T01:23:58;2.25;;;0.90;;
29816;SDS011;16805;52.956;5.906;2023-10-31T01:26:24;3.70;;;1.05;;
29816;SDS011;16805;52.956;5.906;2023-10-31T01:28:50;2.05;;;0.80;;
29816;SDS011;16805;52.956;5.906;2023-10-31T01:31:16;1.63;;;1.05;;
29816;SDS011;16805;52.956;5.906;2023-10-31T01:33:42;4.32;;;0.90;;
29816;SDS011;16805;52.956;5.906;2023-10-31T01:36:08;4.10;;;1.20;;
29816;SDS011;16805;52.956;5.906;2023-10-31T01:38:37;1.63;;;0.40;;
29816;SDS011;16805;52.956;5.906;2023-10-31T01:41:03;1.67;;;0.57;;
29816;SDS011;16805;52.956;5.906;2023-10-31T01:43:38;3.55;;;0.40;;
29816;SDS011;16805;52.956;5.906;2023-10-31T01:46:04;1.92;;;0.50;;
29816;SDS011;16805;52.956;5.906;2023-10-31T01:48:30;2.63;;;0.60;;
29816;SDS011;16805;52.956;5.906;2023-10-31T01:50:58;3.63;;;0.70;;
29816;SDS011;16805;52.956;5.906;2023-10-31T01:53:25;0.93;;;0.40;;
29816;SDS011;16805;52.956;5.906;2023-10-31T01:55:52;1.65;;;0.50;;
29816;SDS011;16805;52.956;5.906;2023-10-31T01:58:20;4.15;;;0.60;;
29816;SDS011;16805;52.956;5.906;2023-10-31T02:00:50;1.63;;;0.52;;
29816;SDS011;16805;52.956;5.906;2023-10-31T02:03:17;3.42;;;0.45;;
29816;SDS011;16805;52.956;5.906;2023-10-31T02:05:43;1.55;;;0.77;;
29816;SDS011;16805;52.956;5.906;2023-10-31T02:08:09;1.23;;;0.40;;
29816;SDS011;16805;52.956;5.906;2023-10-31T02:10:34;1.58;;;0.55;;
29816;SDS011;16805;52.956;5.906;2023-10-31T02:13:10;2.28;;;0.60;;
29816;SDS011;16805;52.956;5.906;2023-10-31T02:15:38;1.45;;;0.40;;
29816;SDS011;16805;52.956;5.906;2023-10-31T02:18:04;1.35;;;0.25;;
29816;SDS011;16805;52.956;5.906;2023-10-31T02:20:29;1.73;;;0.80;;
29816;SDS011;16805;52.956;5.906;2023-10-31T02:22:55;4.30;;;0.60;;
29816;SDS011;16805;52.956;5.906;2023-10-31T02:25:21;2.20;;;0.47;;
29816;SDS011;16805;52.956;5.906;2023-10-31T02:27:46;1.83;;;0.63;;
29816;SDS011;16805;52.956;5.906;2023-10-31T02:30:12;2.22;;;0.60;;
29816;SDS011;16805;52.956;5.906;2023-10-31T02:32:38;3.97;;;0.70;;
29816;SDS011;16805;52.956;5.906;2023-10-31T02:35:03;3.70;;;0.77;;
29816;SDS011;16805;52.956;5.906;2023-10-31T02:37:29;1.80;;;0.93;;
29816;SDS011;16805;52.956;5.906;2023-10-31T02:39:55;2.15;;;0.70;;
29816;SDS011;16805;52.956;5.906;2023-10-31T02:42:20;3.92;;;0.98;;
29816;SDS011;16805;52.956;5.906;2023-10-31T02:44:46;1.85;;;0.90;;
29816;SDS011;16805;52.956;5.906;2023-10-31T02:47:12;2.47;;;1.25;;
29816;SDS011;16805;52.956;5.906;2023-10-31T02:49:37;6.90;;;1.27;;
29816;SDS011;16805;52.956;5.906;2023-10-31T02:52:03;2.85;;;1.10;;
29816;SDS011;16805;52.956;5.906;2023-10-31T02:54:29;3.65;;;0.75;;
29816;SDS011;16805;52.956;5.906;2023-10-31T02:56:54;3.30;;;1.23;;
29816;SDS011;16805;52.956;5.906;2023-10-31T02:59:20;3.90;;;0.70;;
29816;SDS011;16805;52.956;5.906;2023-10-31T03:01:46;2.20;;;1.08;;
29816;SDS011;16805;52.956;5.906;2023-10-31T03:04:11;2.70;;;1.17;;
29816;SDS011;16805;52.956;5.906;2023-10-31T03:06:37;2.75;;;0.88;;
29816;SDS011;16805;52.956;5.906;2023-10-31T03:09:03;2.17;;;1.08;;
29816;SDS011;16805;52.956;5.906;2023-10-31T03:11:28;4.43;;;0.90;;
29816;SDS011;16805;52.956;5.906;2023-10-31T03:13:54;0.60;;;0.40;;
29816;SDS011;16805;52.956;5.906;2023-10-31T03:16:21;0.80;;;0.40;;
29816;SDS011;16805;52.956;5.906;2023-10-31T03:18:47;1.52;;;0.75;;
29816;SDS011;16805;52.956;5.906;2023-10-31T03:21:12;3.60;;;0.43;;
29816;SDS011;16805;52.956;5.906;2023-10-31T03:23:38;0.90;;;0.35;;
29816;SDS011;16805;52.956;5.906;2023-10-31T03:26:04;2.17;;;0.40;;
29816;SDS011;16805;52.956;5.906;2023-10-31T03:28:29;1.35;;;0.43;;
29816;SDS011;16805;52.956;5.906;2023-10-31T03:30:55;3.95;;;0.40;;
29816;SDS011;16805;52.956;5.906;2023-10-31T03:33:20;1.27;;;0.40;;
29816;SDS011;16805;52.956;5.906;2023-10-31T03:35:47;3.17;;;0.77;;
29816;SDS011;16805;52.956;5.906;2023-10-31T03:38:13;2.63;;;0.45;;
29816;SDS011;16805;52.956;5.906;2023-10-31T03:40:39;4.68;;;0.40;;
29816;SDS011;16805;52.956;5.906;2023-10-31T03:43:04;1.67;;;0.30;;
29816;SDS011;16805;52.956;5.906;2023-10-31T03:45:30;1.92;;;0.45;;
29816;SDS011;16805;52.956;5.906;2023-10-31T03:47:56;1.00;;;0.60;;
29816;SDS011;16805;52.956;5.906;2023-10-31T03:50:21;2.63;;;0.43;;
29816;SDS011;16805;52.956;5.906;2023-10-31T03:52:47;1.80;;;0.35;;
29816;SDS011;16805;52.956;5.906;2023-10-31T03:55:13;1.83;;;0.38;;
29816;SDS011;16805;52.956;5.906;2023-10-31T03:57:38;0.63;;;0.20;;
29816;SDS011;16805;52.956;5.906;2023-10-31T04:00:04;3.05;;;0.30;;
29816;SDS011;16805;52.956;5.906;2023-10-31T04:02:32;1.55;;;0.40;;
29816;SDS011;16805;52.956;5.906;2023-10-31T04:04:58;1.40;;;0.30;;
29816;SDS011;16805;52.956;5.906;2023-10-31T04:07:23;2.33;;;0.40;;
29816;SDS011;16805;52.956;5.906;2023-10-31T04:09:49;1.85;;;0.40;;
29816;SDS011;16805;52.956;5.906;2023-10-31T04:12:15;0.95;;;0.32;;
29816;SDS011;16805;52.956;5.906;2023-10-31T04:14:40;0.47;;;0.32;;
29816;SDS011;16805;52.956;5.906;2023-10-31T04:17:06;1.80;;;0.50;;
29816;SDS011;16805;52.956;5.906;2023-10-31T04:19:32;1.35;;;0.30;;
29816;SDS011;16805;52.956;5.906;2023-10-31T04:21:57;1.48;;;0.30;;
29816;SDS011;16805;52.956;5.906;2023-10-31T04:24:23;3.25;;;0.40;;
29816;SDS011;16805;52.956;5.906;2023-10-31T04:26:48;1.35;;;0.38;;
29816;SDS011;16805;52.956;5.906;2023-10-31T04:29:14;1.20;;;0.32;;
29816;SDS011;16805;52.956;5.906;2023-10-31T04:31:39;1.55;;;0.35;;
29816;SDS011;16805;52.956;5.906;2023-10-31T04:34:05;0.50;;;0.20;;
29816;SDS011;16805;52.956;5.906;2023-10-31T04:36:30;2.35;;;0.30;;
29816;SDS011;16805;52.956;5.906;2023-10-31T04:38:56;1.98;;;0.40;;
29816;SDS011;16805;52.956;5.906;2023-10-31T04:41:22;0.93;;;0.40;;
29816;SDS011;16805;52.956;5.906;2023-10-31T04:43:47;2.67;;;1.05;;
29816;SDS011;16805;52.956;5.906;2023-10-31T04:46:13;2.25;;;0.40;;
29816;SDS011;16805;52.956;5.906;2023-10-31T04:48:39;2.63;;;0.30;;
29816;SDS011;16805;52.956;5.906;2023-10-31T04:51:04;2.58;;;0.40;;
29816;SDS011;16805;52.956;5.906;2023-10-31T04:53:30;0.40;;;0.20;;
29816;SDS011;16805;52.956;5.906;2023-10-31T04:55:57;0.88;;;0.22;;
29816;SDS011;16805;52.956;5.906;2023-10-31T04:58:23;2.40;;;0.50;;
29816;SDS011;16805;52.956;5.906;2023-10-31T05:00:49;0.32;;;0.17;;
29816;SDS011;16805;52.956;5.906;2023-10-31T05:03:14;2.00;;;0.30;;
29816;SDS011;16805;52.956;5.906;2023-10-31T05:05:41;1.05;;;0.30;;
29816;SDS011;16805;52.956;5.906;2023-10-31T05:08:06;0.45;;;0.20;;
29816;SDS011;16805;52.956;5.906;2023-10-31T05:10:32;3.65;;;0.40;;
29816;SDS011;16805;52.956;5.906;2023-10-31T05:12:58;1.02;;;0.40;;
29816;SDS011;16805;52.956;5.906;2023-10-31T05:15:27;0.93;;;0.20;;
29816;SDS011;16805;52.956;5.906;2023-10-31T05:17:53;2.60;;;0.43;;
29816;SDS011;16805;52.956;5.906;2023-10-31T05:20:18;0.30;;;0.17;;
29816;SDS011;16805;52.956;5.906;2023-10-31T05:22:45;0.10;;;0.10;;
29816;SDS011;16805;52.956;5.906;2023-10-31T05:25:11;1.90;;;0.20;;
29816;SDS011;16805;52.956;5.906;2023-10-31T05:27:36;0.73;;;0.25;;
29816;SDS011;16805;52.956;5.906;2023-10-31T05:30:02;0.85;;;0.20;;
29816;SDS011;16805;52.956;5.906;2023-10-31T05:32:28;0.55;;;0.30;;
29816;SDS011;16805;52.956;5.906;2023-10-31T05:34:54;1.52;;;0.32;;
29816;SDS011;16805;52.956;5.906;2023-10-31T05:37:19;0.40;;;0.35;;
29816;SDS011;16805;52.956;5.906;2023-10-31T05:39:45;1.17;;;0.30;;
29816;SDS011;16805;52.956;5.906;2023-10-31T05:42:11;2.40;;;0.68;;
29816;SDS011;16805;52.956;5.906;2023-10-31T05:44:36;1.00;;;0.50;;
29816;SDS011;16805;52.956;5.906;2023-10-31T05:47:02;1.40;;;0.80;;
29816;SDS011;16805;52.956;5.906;2023-10-31T05:49:28;3.15;;;1.30;;
29816;SDS011;16805;52.956;5.906;2023-10-31T05:51:55;1.77;;;0.88;;
29816;SDS011;16805;52.956;5.906;2023-10-31T05:54:20;0.98;;;0.75;;
29816;SDS011;16805;52.956;5.906;2023-10-31T05:56:46;2.92;;;0.95;;
29816;SDS011;16805;52.956;5.906;2023-10-31T05:59:12;7.57;;;1.23;;
29816;SDS011;16805;52.956;5.906;2023-10-31T06:01:37;0.82;;;0.57;;
29816;SDS011;16805;52.956;5.906;2023-10-31T06:04:03;1.25;;;0.70;;
29816;SDS011;16805;52.956;5.906;2023-10-31T06:06:32;1.55;;;0.70;;
29816;SDS011;16805;52.956;5.906;2023-10-31T06:08:58;2.03;;;0.70;;
29816;SDS011;16805;52.956;5.906;2023-10-31T06:11:24;3.42;;;0.50;;
29816;SDS011;16805;52.956;5.906;2023-10-31T06:13:50;1.90;;;0.70;;
29816;SDS011;16805;52.956;5.906;2023-10-31T06:16:15;0.43;;;0.43;;
29816;SDS011;16805;52.956;5.906;2023-10-31T06:18:41;2.20;;;0.50;;
29816;SDS011;16805;52.956;5.906;2023-10-31T06:21:07;3.13;;;0.70;;
29816;SDS011;16805;52.956;5.906;2023-10-31T06:23:36;0.82;;;0.38;;
29816;SDS011;16805;52.956;5.906;2023-10-31T06:26:03;3.15;;;0.40;;
29816;SDS011;16805;52.956;5.906;2023-10-31T06:28:29;2.70;;;0.63;;
29816;SDS011;16805;52.956;5.906;2023-10-31T06:30:55;0.40;;;0.40;;
29816;SDS011;16805;52.956;5.906;2023-10-31T06:33:20;2.47;;;0.80;;
29816;SDS011;16805;52.956;5.906;2023-10-31T06:35:46;1.85;;;0.30;;
29816;SDS011;16805;52.956;5.906;2023-10-31T06:38:11;0.63;;;0.38;;
29816;SDS011;16805;52.956;5.906;2023-10-31T06:40:38;2.28;;;1.40;;
29816;SDS011;16805;52.956;5.906;2023-10-31T06:43:03;2.75;;;0.63;;
29816;SDS011;16805;52.956;5.906;2023-10-31T06:45:29;4.43;;;0.40;;
29816;SDS011;16805;52.956;5.906;2023-10-31T06:47:54;0.98;;;0.40;;
29816;SDS011;16805;52.956;5.906;2023-10-31T06:50:20;1.35;;;0.40;;
29816;SDS011;16805;52.956;5.906;2023-10-31T06:52:46;2.63;;;0.30;;
29816;SDS011;16805;52.956;5.906;2023-10-31T06:55:12;1.65;;;0.50;;
29816;SDS011;16805;52.956;5.906;2023-10-31T06:57:37;1.38;;;0.32;;
29816;SDS011;16805;52.956;5.906;2023-10-31T07:00:03;1.00;;;0.30;;
29816;SDS011;16805;52.956;5.906;2023-10-31T07:02:33;1.55;;;0.47;;
29816;SDS011;16805;52.956;5.906;2023-10-31T07:04:58;1.85;;;0.50;;
29816;SDS011;16805;52.956;5.906;2023-10-31T07:07:24;0.82;;;0.40;;
29816;SDS011;16805;52.956;5.906;2023-10-31T07:09:50;7.05;;;0.40;;
29816;SDS011;16805;52.956;5.906;2023-10-31T07:12:15;0.63;;;0.28;;
29816;SDS011;16805;52.956;5.906;2023-10-31T07:14:41;2.10;;;0.47;;
29816;SDS011;16805;52.956;5.906;2023-10-31T07:17:06;0.22;;;0.22;;
29816;SDS011;16805;52.956;5.906;2023-10-31T07:19:32;0.65;;;0.28;;
29816;SDS011;16805;52.956;5.906;2023-10-31T07:21:58;0.73;;;0.43;;
29816;SDS011;16805;52.956;5.906;2023-10-31T07:24:23;1.08;;;0.30;;
29816;SDS011;16805;52.956;5.906;2023-10-31T07:26:49;1.13;;;0.40;;
29816;SDS011;16805;52.956;5.906;2023-10-31T07:29:15;0.85;;;0.32;;
29816;SDS011;16805;52.956;5.906;2023-10-31T07:31:40;1.23;;;0.22;;
29816;SDS011;16805;52.956;5.906;2023-10-31T07:34:06;1.85;;;0.40;;
29816;SDS011;16805;52.956;5.906;2023-10-31T07:36:32;1.15;;;0.38;;
29816;SDS011;16805;52.956;5.906;2023-10-31T07:38:59;0.77;;;0.40;;
29816;SDS011;16805;52.956;5.906;2023-10-31T07:41:25;1.15;;;0.20;;
29816;SDS011;16805;52.956;5.906;2023-10-31T07:43:51;3.95;;;0.28;;
29816;SDS011;16805;52.956;5.906;2023-10-31T07:46:17;0.30;;;0.20;;
29816;SDS011;16805;52.956;5.906;2023-10-31T07:48:43;5.75;;;0.30;;
29816;SDS011;16805;52.956;5.906;2023-10-31T07:51:09;0.43;;;0.20;;
29816;SDS011;16805;52.956;5.906;2023-10-31T07:53:34;2.45;;;0.50;;
29816;SDS011;16805;52.956;5.906;2023-10-31T07:56:00;0.10;;;0.10;;
29816;SDS011;16805;52.956;5.906;2023-10-31T07:58:25;0.70;;;0.20;;
29816;SDS011;16805;52.956;5.906;2023-10-31T08:00:51;1.17;;;0.28;;
29816;SDS011;16805;52.956;5.906;2023-10-31T08:03:17;1.48;;;0.20;;
29816;SDS011;16805;52.956;5.906;2023-10-31T08:05:42;5.28;;;0.20;;
29816;SDS011;16805;52.956;5.906;2023-10-31T08:08:08;1.20;;;0.38;;
29816;SDS011;16805;52.956;5.906;2023-10-31T08:10:34;0.30;;;0.22;;
29816;SDS011;16805;52.956;5.906;2023-10-31T08:12:59;0.60;;;0.17;;
29816;SDS011;16805;52.956;5.906;2023-10-31T08:15:25;2.38;;;0.40;;
29816;SDS011;16805;52.956;5.906;2023-10-31T08:17:51;2.70;;;0.22;;
29816;SDS011;16805;52.956;5.906;2023-10-31T08:20:16;0.45;;;0.28;;
29816;SDS011;16805;52.956;5.906;2023-10-31T08:22:42;2.70;;;0.25;;
29816;SDS011;16805;52.956;5.906;2023-10-31T08:25:08;1.98;;;0.15;;
29816;SDS011;16805;52.956;5.906;2023-10-31T08:27:34;2.17;;;0.13;;
29816;SDS011;16805;52.956;5.906;2023-10-31T08:29:59;2.92;;;0.30;;
29816;SDS011;16805;52.956;5.906;2023-10-31T08:32:25;3.00;;;0.30;;
29816;SDS011;16805;52.956;5.906;2023-10-31T08:34:51;2.85;;;0.28;;
29816;SDS011;16805;52.956;5.906;2023-10-31T08:37:18;0.50;;;0.15;;
29816;SDS011;16805;52.956;5.906;2023-10-31T08:39:44;0.35;;;0.17;;
29816;SDS011;16805;52.956;5.906;2023-10-31T08:42:10;0.43;;;0.13;;
29816;SDS011;16805;52.956;5.906;2023-10-31T08:44:35;0.60;;;0.30;;
29816;SDS011;16805;52.956;5.906;2023-10-31T08:47:02;0.38;;;0.20;;
29816;SDS011;16805;52.956;5.906;2023-10-31T08:49:29;6.60;;;1.23;;
29816;SDS011;16805;52.956;5.906;2023-10-31T08:51:54;4.05;;;0.40;;
29816;SDS011;16805;52.956;5.906;2023-10-31T08:54:20;0.35;;;0.20;;
29816;SDS011;16805;52.956;5.906;2023-10-31T08:56:46;1.80;;;0.22;;
29816;SDS011;16805;52.956;5.906;2023-10-31T08:59:11;0.82;;;0.20;;
29816;SDS011;16805;52.956;5.906;2023-10-31T09:01:37;0.40;;;0.30;;
29816;SDS011;16805;52.956;5.906;2023-10-31T09:04:03;0.10;;;0.10;;
29816;SDS011;16805;52.956;5.906;2023-10-31T09:06:29;0.15;;;0.10;;
29816;SDS011;16805;52.956;5.906;2023-10-31T09:08:54;2.70;;;0.30;;
29816;SDS011;16805;52.956;5.906;2023-10-31T09:11:20;0.05;;;0.05;;
29816;SDS011;16805;52.956;5.906;2023-10-31T09:13:45;1.92;;;0.63;;
29816;SDS011;16805;52.956;5.906;2023-10-31T09:16:11;0.20;;;0.00;;
29816;SDS011;16805;52.956;5.906;2023-10-31T09:18:38;1.85;;;0.10;;
29816;SDS011;16805;52.956;5.906;2023-10-31T09:21:04;0.00;;;0.00;;
29816;SDS011;16805;52.956;5.906;2023-10-31T09:23:30;0.52;;;0.00;;
29816;SDS011;16805;52.956;5.906;2023-10-31T09:25:55;0.00;;;0.00;;
29816;SDS011;16805;52.956;5.906;2023-10-31T09:28:26;0.10;;;0.10;;
29816;SDS011;16805;52.956;5.906;2023-10-31T09:30:51;0.00;;;0.00;;
29816;SDS011;16805;52.956;5.906;2023-10-31T09:33:20;0.00;;;0.00;;
29816;SDS011;16805;52.956;5.906;2023-10-31T09:35:47;0.43;;;0.10;;
29816;SDS011;16805;52.956;5.906;2023-10-31T09:38:13;0.00;;;0.00;;
29816;SDS011;16805;52.956;5.906;2023-10-31T09:40:42;0.10;;;0.10;;
29816;SDS011;16805;52.956;5.906;2023-10-31T11:12:37;0.00;;;0.00;;
29816;SDS011;16805;52.956;5.906;2023-10-31T11:15:11;0.93;;;0.17;;
29816;SDS011;16805;52.956;5.906;2023-10-31T11:21:24;0.65;;;0.20;;
29816;SDS011;16805;52.956;5.906;2023-10-31T11:24:37;1.10;;;0.30;;
29816;SDS011;16805;52.956;5.906;2023-10-31T11:27:08;0.20;;;0.20;;
29816;SDS011;16805;52.956;5.906;2023-10-31T11:29:42;0.10;;;0.10;;
29816;SDS011;16805;52.956;5.906;2023-10-31T11:32:10;0.22;;;0.22;;
29816;SDS011;16805;52.956;5.906;2023-10-31T11:34:39;0.15;;;0.15;;
29816;SDS011;16805;52.956;5.906;2023-10-31T11:40:20;0.47;;;0.10;;
29816;SDS011;16805;52.956;5.906;2023-10-31T11:42:57;0.55;;;0.20;;
29816;SDS011;16805;52.956;5.906;2023-10-31T11:48:02;0.77;;;0.10;;
29816;SDS011;16805;52.956;5.906;2023-10-31T11:50:32;0.38;;;0.13;;
29816;SDS011;16805;52.956;5.906;2023-10-31T11:53:02;1.55;;;0.08;;
29816;SDS011;16805;52.956;5.906;2023-10-31T11:55:49;0.52;;;0.10;;
29816;SDS011;16805;52.956;5.906;2023-10-31T11:58:19;0.88;;;0.43;;
29816;SDS011;16805;52.956;5.906;2023-10-31T12:00:51;2.03;;;0.80;;
29816;SDS011;16805;52.956;5.906;2023-10-31T12:03:39;1.80;;;1.02;;
29816;SDS011;16805;52.956;5.906;2023-10-31T12:06:14;2.53;;;1.00;;
29816;SDS011;16805;52.956;5.906;2023-10-31T12:08:47;1.63;;;0.68;;
29816;SDS011;16805;52.956;5.906;2023-10-31T12:11:23;1.17;;;0.40;;
29816;SDS011;16805;52.956;5.906;2023-10-31T12:14:02;0.93;;;0.40;;
29816;SDS011;16805;52.956;5.906;2023-10-31T12:16:34;2.03;;;0.13;;
29816;SDS011;16805;52.956;5.906;2023-10-31T12:19:01;0.10;;;0.10;;
29816;SDS011;16805;52.956;5.906;2023-10-31T12:24:04;0.95;;;0.52;;
29816;SDS011;16805;52.956;5.906;2023-10-31T12:26:37;0.10;;;0.10;;
29816;SDS011;16805;52.956;5.906;2023-10-31T12:29:17;0.82;;;0.68;;
29816;SDS011;16805;52.956;5.906;2023-10-31T12:31:54;0.90;;;0.25;;
29816;SDS011;16805;52.956;5.906;2023-10-31T12:34:24;3.30;;;0.30;;
29816;SDS011;16805;52.956;5.906;2023-10-31T12:36:59;4.53;;;0.70;;
29816;SDS011;16805;52.956;5.906;2023-10-31T12:39:30;4.22;;;1.02;;
29816;SDS011;16805;52.956;5.906;2023-10-31T12:41:58;0.77;;;0.70;;
29816;SDS011;16805;52.956;5.906;2023-10-31T12:44:34;0.73;;;0.50;;
29816;SDS011;16805;52.956;5.906;2023-10-31T12:47:01;2.05;;;0.50;;
29816;SDS011;16805;52.956;5.906;2023-10-31T12:49:32;2.28;;;0.77;;
29816;SDS011;16805;52.956;5.906;2023-10-31T12:52:02;2.15;;;0.70;;
29816;SDS011;16805;52.956;5.906;2023-10-31T12:54:35;3.10;;;0.40;;
29816;SDS011;16805;52.956;5.906;2023-10-31T12:57:06;0.52;;;0.40;;
29816;SDS011;16805;52.956;5.906;2023-10-31T12:59:37;0.93;;;0.47;;
29816;SDS011;16805;52.956;5.906;2023-10-31T13:02:11;0.75;;;0.45;;
29816;SDS011;16805;52.956;5.906;2023-10-31T13:04:44;1.27;;;0.50;;
29816;SDS011;16805;52.956;5.906;2023-10-31T13:10:26;2.85;;;1.00;;
29816;SDS011;16805;52.956;5.906;2023-10-31T13:12:54;1.60;;;1.17;;
29816;SDS011;16805;52.956;5.906;2023-10-31T13:15:22;2.90;;;1.40;;
29816;SDS011;16805;52.956;5.906;2023-10-31T13:17:48;1.75;;;1.20;;
29816;SDS011;16805;52.956;5.906;2023-10-31T13:20:16;1.88;;;1.42;;
29816;SDS011;16805;52.956;5.906;2023-10-31T13:22:43;1.55;;;1.05;;
29816;SDS011;16805;52.956;5.906;2023-10-31T13:25:09;0.63;;;0.40;;
29816;SDS011;16805;52.956;5.906;2023-10-31T13:27:37;1.90;;;0.50;;
29816;SDS011;16805;52.956;5.906;2023-10-31T13:30:03;0.35;;;0.10;;
29816;SDS011;16805;52.956;5.906;2023-10-31T13:32:29;0.40;;;0.20;;
29816;SDS011;16805;52.956;5.906;2023-10-31T13:34:55;0.35;;;0.10;;
29816;SDS011;16805;52.956;5.906;2023-10-31T13:37:21;1.85;;;0.20;;
29816;SDS011;16805;52.956;5.906;2023-10-31T13:39:46;1.45;;;0.10;;
29816;SDS011;16805;52.956;5.906;2023-10-31T13:42:12;1.15;;;0.20;;
29816;SDS011;16805;52.956;5.906;2023-10-31T13:44:39;1.13;;;0.20;;
29816;SDS011;16805;52.956;5.906;2023-10-31T13:47:05;0.30;;;0.15;;
29816;SDS011;16805;52.956;5.906;2023-10-31T13:49:31;2.30;;;0.10;;
29816;SDS011;16805;52.956;5.906;2023-10-31T13:51:57;1.65;;;0.28;;
29816;SDS011;16805;52.956;5.906;2023-10-31T13:54:22;1.20;;;0.10;;
29816;SDS011;16805;52.956;5.906;2023-10-31T13:56:48;0.90;;;0.20;;
29816;SDS011;16805;52.956;5.906;2023-10-31T13:59:13;0.10;;;0.10;;
29816;SDS011;16805;52.956;5.906;2023-10-31T14:01:39;1.05;;;0.10;;
29816;SDS011;16805;52.956;5.906;2023-10-31T14:04:06;0.93;;;0.10;;
29816;SDS011;16805;52.956;5.906;2023-10-31T14:06:32;0.35;;;0.10;;
29816;SDS011;16805;52.956;5.906;2023-10-31T14:08:58;0.30;;;0.20;;
29816;SDS011;16805;52.956;5.906;2023-10-31T14:11:25;0.98;;;0.10;;
29816;SDS011;16805;52.956;5.906;2023-10-31T14:13:51;0.17;;;0.17;;
29816;SDS011;16805;52.956;5.906;2023-10-31T14:16:17;0.10;;;0.10;;
29816;SDS011;16805;52.956;5.906;2023-10-31T14:18:43;1.00;;;0.00;;
29816;SDS011;16805;52.956;5.906;2023-10-31T14:21:11;0.75;;;0.10;;
29816;SDS011;16805;52.956;5.906;2023-10-31T14:23:36;4.45;;;0.10;;
29816;SDS011;16805;52.956;5.906;2023-10-31T14:26:02;0.30;;;0.08;;
29816;SDS011;16805;52.956;5.906;2023-10-31T14:28:28;0.82;;;0.10;;
29816;SDS011;16805;52.956;5.906;2023-10-31T14:30:53;0.63;;;0.30;;
29816;SDS011;16805;52.956;5.906;2023-10-31T14:33:19;0.28;;;0.20;;
29816;SDS011;16805;52.956;5.906;2023-10-31T14:35:44;0.15;;;0.15;;
29816;SDS011;16805;52.956;5.906;2023-10-31T14:38:10;0.45;;;0.20;;
29816;SDS011;16805;52.956;5.906;2023-10-31T14:40:36;0.45;;;0.22;;
29816;SDS011;16805;52.956;5.906;2023-10-31T14:43:01;1.00;;;0.20;;
29816;SDS011;16805;52.956;5.906;2023-10-31T14:45:27;0.10;;;0.10;;
29816;SDS011;16805;52.956;5.906;2023-10-31T14:47:53;2.63;;;0.30;;
29816;SDS011;16805;52.956;5.906;2023-10-31T14:50:18;0.63;;;0.20;;
29816;SDS011;16805;52.956;5.906;2023-10-31T14:52:47;0.68;;;0.17;;
29816;SDS011;16805;52.956;5.906;2023-10-31T14:55:13;4.05;;;0.40;;
29816;SDS011;16805;52.956;5.906;2023-10-31T14:57:38;1.35;;;0.20;;
29816;SDS011;16805;52.956;5.906;2023-10-31T15:00:05;0.93;;;0.20;;
29816;SDS011;16805;52.956;5.906;2023-10-31T15:02:33;0.17;;;0.10;;
29816;SDS011;16805;52.956;5.906;2023-10-31T15:04:59;0.40;;;0.20;;
29816;SDS011;16805;52.956;5.906;2023-10-31T15:07:27;0.85;;;0.20;;
29816;SDS011;16805;52.956;5.906;2023-10-31T15:09:53;0.17;;;0.17;;
29816;SDS011;16805;52.956;5.906;2023-10-31T15:12:18;1.70;;;0.30;;
29816;SDS011;16805;52.956;5.906;2023-10-31T15:14:47;1.35;;;0.20;;
29816;SDS011;16805;52.956;5.906;2023-10-31T15:17:13;0.30;;;0.20;;
29816;SDS011;16805;52.956;5.906;2023-10-31T15:19:39;0.50;;;0.30;;
29816;SDS011;16805;52.956;5.906;2023-10-31T15:22:04;0.38;;;0.20;;
29816;SDS011;16805;52.956;5.906;2023-10-31T15:24:30;0.73;;;0.13;;
29816;SDS011;16805;52.956;5.906;2023-10-31T15:26:58;0.57;;;0.28;;
29816;SDS011;16805;52.956;5.906;2023-10-31T15:29:23;0.10;;;0.10;;
29816;SDS011;16805;52.956;5.906;2023-10-31T15:31:49;3.22;;;0.40;;
29816;SDS011;16805;52.956;5.906;2023-10-31T15:34:19;1.55;;;0.40;;
29816;SDS011;16805;52.956;5.906;2023-10-31T15:36:45;0.40;;;0.28;;
29816;SDS011;16805;52.956;5.906;2023-10-31T15:39:10;0.40;;;0.20;;
29816;SDS011;16805;52.956;5.906;2023-10-31T15:41:37;0.47;;;0.20;;
29816;SDS011;16805;52.956;5.906;2023-10-31T15:44:03;1.02;;;0.25;;
29816;SDS011;16805;52.956;5.906;2023-10-31T15:46:29;0.73;;;0.30;;
29816;SDS011;16805;52.956;5.906;2023-10-31T15:48:55;0.35;;;0.20;;
29816;SDS011;16805;52.956;5.906;2023-10-31T15:51:20;0.30;;;0.25;;
29816;SDS011;16805;52.956;5.906;2023-10-31T15:53:46;0.57;;;0.25;;
29816;SDS011;16805;52.956;5.906;2023-10-31T15:56:12;0.77;;;0.30;;
29816;SDS011;16805;52.956;5.906;2023-10-31T15:58:38;1.83;;;0.50;;
29816;SDS011;16805;52.956;5.906;2023-10-31T16:01:04;1.70;;;0.40;;
29816;SDS011;16805;52.956;5.906;2023-10-31T16:03:30;3.65;;;0.50;;
29816;SDS011;16805;52.956;5.906;2023-10-31T16:05:59;3.33;;;0.70;;
29816;SDS011;16805;52.956;5.906;2023-10-31T16:08:26;1.40;;;0.70;;
29816;SDS011;16805;52.956;5.906;2023-10-31T16:10:52;1.52;;;0.43;;
29816;SDS011;16805;52.956;5.906;2023-10-31T16:13:17;1.23;;;0.70;;
29816;SDS011;16805;52.956;5.906;2023-10-31T16:15:43;3.20;;;0.60;;
29816;SDS011;16805;52.956;5.906;2023-10-31T16:18:08;2.80;;;0.50;;
29816;SDS011;16805;52.956;5.906;2023-10-31T16:20:36;0.70;;;0.50;;
29816;SDS011;16805;52.956;5.906;2023-10-31T16:23:01;2.30;;;0.70;;
29816;SDS011;16805;52.956;5.906;2023-10-31T16:25:27;2.97;;;0.68;;
29816;SDS011;16805;52.956;5.906;2023-10-31T16:27:52;2.65;;;0.80;;
29816;SDS011;16805;52.956;5.906;2023-10-31T16:30:18;1.48;;;0.60;;